Time;durP1;ratioP1;P1;durP2;ratioP2;P2;SDS_P1;SDS_P2;PMS_P1;PMS_P2;Temp;Humidity;BMP_temperature;BMP_pressure;BME280_temperature;BME280_humidity;BME280_pressure;Samples;Min_cycle;Max_cycle;Signal;HPM_P1;HPM_P2
2022/04/28 00:02:11;;;;;;;12.70;7.43;;;;;;;;;;5049247;28;20029;-73
2022/04/28 00:04:37;;;;;;;10.05;6.78;;;;;;;;;;5034896;28;20025;-74
2022/04/28 00:07:03;;;;;;;9.90;6.75;;;;;;;;;;5050259;28;20388;-75
2022/04/28 00:09:30;;;;;;;13.57;7.68;;;;;;;;;;5050238;28;20500;-74
2022/04/28 00:11:56;;;;;;;13.32;7.53;;;;;;;;;;5051130;28;20024;-74
2022/04/28 00:14:22;;;;;;;13.13;6.93;;;;;;;;;;5050146;28;20025;-74
2022/04/28 00:16:48;;;;;;;11.18;6.82;;;;;;;;;;5028253;28;20052;-74
2022/04/28 00:19:14;;;;;;;15.68;7.68;;;;;;;;;;5059191;28;20465;-74
2022/04/28 00:21:40;;;;;;;11.25;7.18;;;;;;;;;;5041885;28;20378;-74
2022/04/28 00:24:06;;;;;;;13.15;7.38;;;;;;;;;;5049719;28;20025;-74
2022/04/28 00:26:32;;;;;;;10.25;6.32;;;;;;;;;;5049022;28;20033;-74
2022/04/28 00:28:58;;;;;;;12.82;7.00;;;;;;;;;;5050024;28;20032;-74
2022/04/28 00:31:24;;;;;;;16.70;6.75;;;;;;;;;;5031203;28;20125;-74
2022/04/28 00:33:50;;;;;;;9.48;6.47;;;;;;;;;;5030334;28;20528;-74
2022/04/28 00:36:16;;;;;;;10.18;5.63;;;;;;;;;;5049161;28;20109;-75
2022/04/28 00:38:42;;;;;;;11.18;6.65;;;;;;;;;;5049061;28;20024;-74
2022/04/28 00:41:08;;;;;;;9.07;5.93;;;;;;;;;;5032239;28;20101;-74
2022/04/28 00:43:47;;;;;;;11.35;6.50;;;;;;;;;;5047088;28;20041;-75
2022/04/28 00:46:13;;;;;;;11.25;6.20;;;;;;;;;;5045899;28;20032;-74
2022/04/28 00:51:23;;;;;;;14.48;7.07;;;;;;;;;;5049834;28;20040;-73
2022/04/28 00:53:51;;;;;;;9.32;6.20;;;;;;;;;;5042659;28;20041;-74
2022/04/28 00:56:18;;;;;;;9.80;6.00;;;;;;;;;;5027330;28;20268;-75
2022/04/28 00:58:44;;;;;;;10.65;6.68;;;;;;;;;;5031978;28;20032;-74
2022/04/28 01:01:10;;;;;;;10.32;6.05;;;;;;;;;;5049849;28;20021;-74
2022/04/28 01:03:37;;;;;;;11.40;7.10;;;;;;;;;;5048769;28;20402;-74
2022/04/28 01:06:03;;;;;;;11.75;7.30;;;;;;;;;;5047400;28;20465;-75
2022/04/28 01:08:29;;;;;;;10.80;6.60;;;;;;;;;;5031414;28;20500;-74
2022/04/28 01:10:56;;;;;;;12.57;6.70;;;;;;;;;;5049431;28;20428;-74
2022/04/28 01:13:22;;;;;;;12.40;6.85;;;;;;;;;;5048742;28;20017;-74
2022/04/28 01:15:49;;;;;;;12.32;6.75;;;;;;;;;;5049517;28;20029;-74
2022/04/28 01:18:15;;;;;;;12.65;6.60;;;;;;;;;;5027519;28;20445;-74
2022/04/28 01:20:42;;;;;;;11.13;6.00;;;;;;;;;;5047437;28;20049;-74
2022/04/28 01:23:08;;;;;;;10.73;5.78;;;;;;;;;;5049215;28;20041;-74
2022/04/28 01:25:34;;;;;;;13.43;5.97;;;;;;;;;;5048671;28;20539;-74
2022/04/28 01:28:01;;;;;;;11.05;6.07;;;;;;;;;;5029769;28;20028;-74
2022/04/28 01:30:27;;;;;;;10.77;6.72;;;;;;;;;;5030805;28;20021;-74
2022/04/28 01:32:54;;;;;;;10.98;5.55;;;;;;;;;;5048615;28;20037;-74
2022/04/28 01:35:20;;;;;;;10.23;6.15;;;;;;;;;;5025563;28;20035;-75
2022/04/28 01:37:46;;;;;;;11.95;6.10;;;;;;;;;;5031148;28;20029;-74
2022/04/28 01:40:12;;;;;;;11.40;6.28;;;;;;;;;;5047119;28;20482;-74
2022/04/28 01:42:42;;;;;;;11.13;6.32;;;;;;;;;;5047992;28;20115;-74
2022/04/28 01:45:08;;;;;;;9.50;5.50;;;;;;;;;;5039974;28;20474;-74
2022/04/28 01:47:35;;;;;;;10.48;6.40;;;;;;;;;;5048765;28;20033;-74
2022/04/28 01:50:01;;;;;;;9.95;6.00;;;;;;;;;;5047098;28;20029;-74
2022/04/28 01:55:12;;;;;;;9.52;6.05;;;;;;;;;;5044095;28;20087;-74
2022/04/28 01:57:39;;;;;;;12.60;6.60;;;;;;;;;;5048327;28;20025;-74
2022/04/28 02:00:06;;;;;;;11.10;6.28;;;;;;;;;;5048709;28;20021;-74
2022/04/28 02:02:32;;;;;;;13.65;6.80;;;;;;;;;;5043754;28;20095;-74
2022/04/28 02:04:59;;;;;;;11.18;6.78;;;;;;;;;;5047492;28;20127;-74
2022/04/28 02:07:28;;;;;;;12.05;6.32;;;;;;;;;;5048786;28;20025;-74
2022/04/28 02:09:55;;;;;;;7.20;5.05;;;;;;;;;;5025266;28;20091;-74
2022/04/28 02:12:21;;;;;;;8.90;5.30;;;;;;;;;;5045241;28;20031;-74
2022/04/28 02:14:47;;;;;;;10.13;5.95;;;;;;;;;;5027583;28;20048;-74
2022/04/28 02:17:20;;;;;;;11.13;6.05;;;;;;;;;;5026148;28;20033;-74
2022/04/28 02:19:46;;;;;;;11.18;6.40;;;;;;;;;;5046879;28;21463;-74
2022/04/28 02:22:12;;;;;;;16.13;6.65;;;;;;;;;;5048567;28;20025;-74
2022/04/28 02:24:38;;;;;;;9.38;5.60;;;;;;;;;;5049250;28;20021;-74
2022/04/28 02:27:04;;;;;;;11.50;5.63;;;;;;;;;;5048450;28;20018;-75
2022/04/28 02:29:30;;;;;;;9.57;5.93;;;;;;;;;;5028594;28;20032;-75
2022/04/28 02:31:56;;;;;;;9.95;5.90;;;;;;;;;;5049060;28;20440;-74
2022/04/28 02:34:22;;;;;;;10.55;6.15;;;;;;;;;;5027148;28;20029;-74
2022/04/28 02:36:48;;;;;;;10.23;6.00;;;;;;;;;;5046749;28;20052;-74
2022/04/28 02:39:14;;;;;;;10.38;6.47;;;;;;;;;;5046319;28;20497;-74
2022/04/28 02:41:44;;;;;;;8.18;5.55;;;;;;;;;;5030341;28;20021;-74
2022/04/28 02:44:12;;;;;;;9.00;4.88;;;;;;;;;;5030343;28;20033;-74
2022/04/28 02:46:38;;;;;;;10.23;6.55;;;;;;;;;;5027373;28;20037;-75
2022/04/28 02:49:04;;;;;;;9.18;5.47;;;;;;;;;;5048165;28;20101;-75
2022/04/28 02:51:30;;;;;;;9.68;6.25;;;;;;;;;;5071172;23;20048;-83
2022/04/28 02:53:56;;;;;;;12.13;7.00;;;;;;;;;;5040367;28;20021;-84
2022/04/28 02:56:22;;;;;;;9.02;5.93;;;;;;;;;;5030745;28;20406;-84
2022/04/28 02:58:50;;;;;;;9.07;5.85;;;;;;;;;;5048879;28;20028;-83
2022/04/28 03:01:16;;;;;;;12.02;6.20;;;;;;;;;;5048112;28;20025;-83
2022/04/28 03:03:42;;;;;;;11.88;6.93;;;;;;;;;;5052286;28;20209;-84
2022/04/28 03:11:41;;;;;;;14.23;6.07;;;;;;;;;;5052394;28;20063;-83
2022/04/28 03:14:07;;;;;;;10.80;6.32;;;;;;;;;;5046595;28;20382;-85
2022/04/28 03:16:33;;;;;;;10.05;6.50;;;;;;;;;;5050576;28;20029;-84
2022/04/28 03:18:59;;;;;;;12.18;6.75;;;;;;;;;;5035396;28;20520;-84
2022/04/28 03:21:25;;;;;;;12.98;6.75;;;;;;;;;;5035307;28;20048;-84
2022/04/28 03:23:51;;;;;;;12.85;7.07;;;;;;;;;;5042170;28;20037;-84
2022/04/28 03:26:17;;;;;;;14.05;6.28;;;;;;;;;;5023970;28;20083;-83
2022/04/28 03:28:43;;;;;;;12.48;6.97;;;;;;;;;;5034817;28;20049;-84
2022/04/28 03:31:09;;;;;;;14.60;7.25;;;;;;;;;;5052640;28;20509;-83
2022/04/28 03:33:35;;;;;;;12.32;6.60;;;;;;;;;;5043092;28;20017;-84
2022/04/28 03:36:01;;;;;;;11.80;7.32;;;;;;;;;;5027572;28;20032;-84
2022/04/28 03:38:27;;;;;;;13.82;7.03;;;;;;;;;;5050633;28;20029;-84
2022/04/28 03:40:53;;;;;;;11.13;6.63;;;;;;;;;;5034445;28;20033;-84
2022/04/28 03:43:19;;;;;;;11.68;6.68;;;;;;;;;;5052622;28;20033;-84
2022/04/28 03:45:45;;;;;;;12.15;7.10;;;;;;;;;;5046972;28;20479;-84
2022/04/28 03:48:11;;;;;;;12.68;7.05;;;;;;;;;;5034755;28;20068;-84
2022/04/28 03:50:38;;;;;;;11.35;7.00;;;;;;;;;;5043571;28;20540;-84
2022/04/28 03:53:04;;;;;;;14.93;6.90;;;;;;;;;;5045791;28;20064;-84
2022/04/28 03:55:30;;;;;;;12.65;6.65;;;;;;;;;;5025500;28;20039;-85
2022/04/28 03:57:57;;;;;;;11.25;6.70;;;;;;;;;;5033866;28;20127;-84
2022/04/28 04:00:23;;;;;;;11.90;5.63;;;;;;;;;;5051258;28;20237;-83
2022/04/28 04:02:49;;;;;;;12.52;6.55;;;;;;;;;;5050389;28;20032;-84
2022/04/28 04:05:16;;;;;;;10.80;6.28;;;;;;;;;;5033030;28;20071;-84
2022/04/28 04:07:43;;;;;;;10.70;6.80;;;;;;;;;;5031274;28;20032;-84
2022/04/28 04:10:13;;;;;;;11.35;6.10;;;;;;;;;;5050925;28;20547;-83
2022/04/28 04:12:39;;;;;;;;;;;;;;;;;;5051394;28;20474;-83
2022/04/28 04:15:06;;;;;;;11.63;6.97;;;;;;;;;;5051083;28;19911;-84
2022/04/28 04:17:37;;;;;;;11.95;6.85;;;;;;;;;;5050215;28;20048;-84
2022/04/28 04:20:03;;;;;;;12.07;6.70;;;;;;;;;;5034493;28;20066;-84
2022/04/28 04:22:29;;;;;;;10.40;6.57;;;;;;;;;;5047900;28;20045;-84
2022/04/28 04:24:55;;;;;;;10.80;6.75;;;;;;;;;;5032739;28;20111;-84
2022/04/28 04:27:21;;;;;;;13.65;6.85;;;;;;;;;;5047554;28;20028;-84
2022/04/28 04:29:47;;;;;;;16.30;7.47;;;;;;;;;;5050231;28;20028;-84
2022/04/28 04:32:24;;;;;;;11.88;6.20;;;;;;;;;;5050210;28;20027;-84
2022/04/28 04:34:50;;;;;;;16.25;7.75;;;;;;;;;;5050158;28;20116;-84
2022/04/28 04:37:16;;;;;;;16.33;7.25;;;;;;;;;;5043533;28;20025;-84
2022/04/28 04:39:43;;;;;;;10.30;6.57;;;;;;;;;;5032256;28;20104;-84
2022/04/28 04:42:09;;;;;;;16.85;7.40;;;;;;;;;;5050327;28;20309;-83
2022/04/28 04:44:35;;;;;;;13.57;7.55;;;;;;;;;;5040744;28;20103;-85
2022/04/28 04:47:01;;;;;;;12.48;6.97;;;;;;;;;;5040358;28;20033;-83
2022/04/28 04:49:27;;;;;;;13.88;8.13;;;;;;;;;;5047209;28;20035;-84
2022/04/28 04:51:53;;;;;;;14.57;7.22;;;;;;;;;;5042416;28;20033;-84
2022/04/28 04:54:22;;;;;;;13.95;8.13;;;;;;;;;;5031585;28;20056;-84
2022/04/28 04:56:50;;;;;;;14.98;7.75;;;;;;;;;;5030646;28;20325;-60
2022/04/28 04:59:16;;;;;;;13.70;7.18;;;;;;;;;;5025647;28;20048;-59
2022/04/28 05:01:42;;;;;;;12.07;6.68;;;;;;;;;;5047548;28;20474;-59
2022/04/28 05:04:08;;;;;;;11.27;7.40;;;;;;;;;;5049676;28;20126;-59
2022/04/28 05:06:34;;;;;;;13.02;7.05;;;;;;;;;;5047369;28;20105;-60
2022/04/28 05:09:00;;;;;;;13.45;8.10;;;;;;;;;;5045436;28;20025;-59
2022/04/28 05:11:26;;;;;;;14.40;8.02;;;;;;;;;;5045838;28;20075;-60
2022/04/28 05:13:52;;;;;;;14.00;7.43;;;;;;;;;;5050189;28;20106;-60
2022/04/28 05:16:18;;;;;;;15.38;8.25;;;;;;;;;;5041697;28;20086;-60
2022/04/28 05:18:44;;;;;;;16.50;8.27;;;;;;;;;;5050158;28;20466;-59
2022/04/28 05:21:10;;;;;;;11.98;7.82;;;;;;;;;;5050095;28;20040;-59
2022/04/28 05:23:36;;;;;;;14.50;7.90;;;;;;;;;;5041297;28;20133;-59
2022/04/28 05:26:02;;;;;;;15.63;8.63;;;;;;;;;;5044349;28;20013;-60
2022/04/28 05:28:28;;;;;;;13.95;8.18;;;;;;;;;;5042529;28;20544;-59
2022/04/28 05:30:55;;;;;;;16.77;9.75;;;;;;;;;;5047462;28;20496;-60
2022/04/28 05:33:22;;;;;;;19.45;8.50;;;;;;;;;;5050007;28;20060;-59
2022/04/28 05:35:48;;;;;;;16.10;7.85;;;;;;;;;;5049590;28;20028;-59
2022/04/28 05:38:14;;;;;;;13.38;8.00;;;;;;;;;;5049120;28;20151;-59
2022/04/28 05:40:42;;;;;;;15.68;7.65;;;;;;;;;;5041217;28;20108;-60
2022/04/28 05:45:54;;;;;;;16.52;8.52;;;;;;;;;;5049687;28;20048;-60
2022/04/28 05:48:20;;;;;;;15.48;8.43;;;;;;;;;;5043940;28;20171;-60
2022/04/28 05:56:57;;;;;;;13.23;7.40;;;;;;;;;;5051306;28;20106;-59
2022/04/28 05:59:23;;;;;;;16.90;8.50;;;;;;;;;;5051564;28;20025;-60
2022/04/28 06:01:49;;;;;;;14.27;8.10;;;;;;;;;;5043089;28;20355;-60
2022/04/28 06:04:15;;;;;;;18.80;8.18;;;;;;;;;;5033499;28;20036;-59
2022/04/28 06:06:41;;;;;;;14.25;7.93;;;;;;;;;;5030417;28;20025;-59
2022/04/28 06:09:07;;;;;;;11.45;7.38;;;;;;;;;;5040247;28;20423;-60
2022/04/28 06:11:33;;;;;;;13.73;7.45;;;;;;;;;;5049988;28;20408;-59
2022/04/28 06:13:59;;;;;;;17.02;7.53;;;;;;;;;;5048637;28;20024;-60
2022/04/28 06:16:25;;;;;;;12.50;7.75;;;;;;;;;;5048543;28;20535;-59
2022/04/28 06:18:51;;;;;;;14.85;7.85;;;;;;;;;;5049320;28;20025;-60
2022/04/28 06:21:17;;;;;;;15.90;7.95;;;;;;;;;;5044399;28;20033;-59
2022/04/28 06:23:45;;;;;;;14.82;7.60;;;;;;;;;;5045205;28;20033;-60
2022/04/28 06:26:11;;;;;;;14.38;7.93;;;;;;;;;;5036772;28;20040;-60
2022/04/28 06:28:37;;;;;;;13.10;8.80;;;;;;;;;;5041165;28;20025;-61
2022/04/28 06:31:03;;;;;;;12.77;7.53;;;;;;;;;;5041505;28;20025;-59
2022/04/28 06:39:42;;;;;;;13.15;7.32;;;;;;;;;;5055304;28;20025;-61
2022/04/28 06:42:08;;;;;;;13.65;7.93;;;;;;;;;;5044717;28;20063;-60
2022/04/28 06:44:36;;;;;;;10.70;6.82;;;;;;;;;;5053298;28;20037;-59
2022/04/28 06:47:05;;;;;;;13.98;7.65;;;;;;;;;;5046306;28;20100;-59
2022/04/28 06:49:30;;;;;;;12.63;7.03;;;;;;;;;;5040131;28;20113;-59
2022/04/28 06:51:56;;;;;;;13.30;7.68;;;;;;;;;;5053142;28;20103;-59
2022/04/28 06:54:22;;;;;;;13.57;7.85;;;;;;;;;;5033427;28;20055;-59
2022/04/28 06:56:48;;;;;;;15.27;7.60;;;;;;;;;;5051751;28;20037;-60
2022/04/28 06:59:15;;;;;;;12.70;7.68;;;;;;;;;;5052700;28;20033;-59
2022/04/28 07:01:41;;;;;;;13.48;7.90;;;;;;;;;;5034689;28;20045;-60
2022/04/28 07:04:07;;;;;;;12.50;7.53;;;;;;;;;;5053090;28;20072;-60
2022/04/28 07:06:33;;;;;;;12.15;7.20;;;;;;;;;;5056749;28;20087;-59
2022/04/28 07:08:59;;;;;;;14.63;8.23;;;;;;;;;;5043960;28;20041;-59
2022/04/28 07:11:25;;;;;;;12.57;6.90;;;;;;;;;;5034553;28;20466;-59
2022/04/28 07:13:52;;;;;;;11.43;6.55;;;;;;;;;;5051156;28;20539;-60
2022/04/28 07:16:18;;;;;;;12.18;7.22;;;;;;;;;;5052005;28;20509;-59
2022/04/28 07:18:44;;;;;;;11.98;7.10;;;;;;;;;;5051781;28;20094;-59
2022/04/28 07:21:10;;;;;;;12.48;7.03;;;;;;;;;;5051090;28;20033;-59
2022/04/28 07:23:36;;;;;;;16.40;7.57;;;;;;;;;;5033833;28;20029;-59
2022/04/28 07:26:02;;;;;;;12.45;7.25;;;;;;;;;;5029319;28;20025;-59
2022/04/28 07:28:28;;;;;;;10.93;7.22;;;;;;;;;;5052391;28;20052;-59
2022/04/28 07:30:54;;;;;;;11.93;7.22;;;;;;;;;;5051888;28;20470;-59
2022/04/28 07:33:20;;;;;;;15.68;7.95;;;;;;;;;;5052256;28;20025;-59
2022/04/28 07:35:53;;;;;;;14.40;8.18;;;;;;;;;;5054345;28;20025;-60
2022/04/28 07:38:19;;;;;;;12.75;7.22;;;;;;;;;;5051660;28;20064;-59
2022/04/28 07:40:45;;;;;;;12.63;7.53;;;;;;;;;;5050446;28;20025;-60
2022/04/28 07:43:11;;;;;;;10.15;6.40;;;;;;;;;;5051541;28;20032;-59
2022/04/28 07:48:43;;;;;;;14.38;7.95;;;;;;;;;;5039644;28;20040;-59
2022/04/28 07:51:09;;;;;;;12.27;6.90;;;;;;;;;;5043499;28;20453;-60
2022/04/28 07:53:35;;;;;;;12.13;7.65;;;;;;;;;;5051616;28;20057;-60
2022/04/28 07:56:10;;;;;;;14.60;7.80;;;;;;;;;;5045794;28;20033;-60
2022/04/28 07:58:37;;;;;;;10.85;6.38;;;;;;;;;;5051190;28;20363;-59
2022/04/28 08:01:03;;;;;;;11.90;7.38;;;;;;;;;;5051436;28;20092;-59
2022/04/28 08:03:29;;;;;;;11.68;6.95;;;;;;;;;;5033423;28;20033;-59
2022/04/28 08:05:55;;;;;;;10.43;6.78;;;;;;;;;;5051271;28;20132;-59
2022/04/28 08:08:21;;;;;;;11.95;7.75;;;;;;;;;;5051789;28;20028;-59
2022/04/28 08:10:47;;;;;;;12.65;6.68;;;;;;;;;;5050295;28;20470;-60
2022/04/28 08:13:13;;;;;;;17.40;7.20;;;;;;;;;;5043646;28;20025;-59
2022/04/28 08:15:39;;;;;;;12.13;7.53;;;;;;;;;;5050763;28;20094;-59
2022/04/28 08:18:05;;;;;;;18.83;7.03;;;;;;;;;;5043072;28;20021;-59
2022/04/28 08:20:32;;;;;;;12.63;7.63;;;;;;;;;;5051091;28;20048;-59
2022/04/28 08:22:58;;;;;;;12.38;7.25;;;;;;;;;;5048935;28;20032;-60
2022/04/28 08:25:24;;;;;;;13.90;7.93;;;;;;;;;;5047815;28;20990;-59
2022/04/28 08:27:50;;;;;;;14.77;7.45;;;;;;;;;;5024106;28;20028;-60
2022/04/28 08:30:16;;;;;;;15.65;6.80;;;;;;;;;;5051155;28;20294;-60
2022/04/28 08:32:42;;;;;;;14.30;8.13;;;;;;;;;;5051531;28;20033;-59
2022/04/28 08:35:08;;;;;;;10.02;7.30;;;;;;;;;;5050434;28;20466;-59
2022/04/28 08:37:36;;;;;;;11.57;6.47;;;;;;;;;;5044388;28;20025;-59
2022/04/28 08:40:02;;;;;;;12.73;7.78;;;;;;;;;;5045202;28;20032;-60
2022/04/28 08:42:29;;;;;;;13.88;7.78;;;;;;;;;;5045299;28;20044;-59
2022/04/28 08:44:59;;;;;;;9.57;6.10;;;;;;;;;;5050799;28;20115;-59
2022/04/28 08:47:26;;;;;;;17.50;6.90;;;;;;;;;;5051761;28;20029;-59
2022/04/28 08:49:52;;;;;;;10.70;6.20;;;;;;;;;;5033173;28;20025;-59
2022/04/28 08:52:19;;;;;;;10.52;7.20;;;;;;;;;;5038741;28;20490;-60
2022/04/28 08:54:46;;;;;;;13.00;6.25;;;;;;;;;;5047194;28;20032;-59
2022/04/28 08:57:13;;;;;;;12.73;6.80;;;;;;;;;;5050637;28;20115;-59
2022/04/28 08:59:39;;;;;;;10.27;5.95;;;;;;;;;;5049594;28;20016;-59
2022/04/28 09:02:05;;;;;;;10.30;6.80;;;;;;;;;;5042379;28;20021;-59
2022/04/28 09:04:32;;;;;;;11.02;6.05;;;;;;;;;;5056075;28;20082;-59
2022/04/28 09:06:58;;;;;;;12.93;6.40;;;;;;;;;;5052083;28;20485;-60
2022/04/28 09:09:25;;;;;;;12.13;5.90;;;;;;;;;;5041318;28;20025;-59
2022/04/28 09:12:01;;;;;;;11.25;6.53;;;;;;;;;;5049805;28;20158;-59
2022/04/28 09:14:27;;;;;;;14.40;6.13;;;;;;;;;;5050262;28;20029;-59
2022/04/28 09:16:59;;;;;;;12.82;5.32;;;;;;;;;;5049814;28;20025;-59
2022/04/28 09:19:26;;;;;;;9.60;5.20;;;;;;;;;;5046269;28;20021;-60
2022/04/28 09:21:55;;;;;;;7.47;5.20;;;;;;;;;;5050892;28;20131;-59
2022/04/28 09:24:22;;;;;;;10.60;5.32;;;;;;;;;;5050752;28;20482;-59
2022/04/28 09:26:54;;;;;;;12.77;6.28;;;;;;;;;;5075118;22;20041;-59
2022/04/28 09:29:20;;;;;;;14.70;5.20;;;;;;;;;;5023383;28;20160;-58
2022/04/28 09:31:48;;;;;;;8.20;5.05;;;;;;;;;;5049364;28;20020;-58
2022/04/28 09:34:15;;;;;;;8.80;4.35;;;;;;;;;;5040974;28;20029;-58
2022/04/28 09:36:43;;;;;;;9.93;5.35;;;;;;;;;;5049266;28;20047;-58
2022/04/28 09:39:12;;;;;;;10.70;5.80;;;;;;;;;;5045220;28;20017;-58
2022/04/28 09:44:23;;;;;;;7.90;4.60;;;;;;;;;;5041289;28;20102;-58
2022/04/28 09:46:50;;;;;;;7.95;4.38;;;;;;;;;;5048230;28;20056;-59
2022/04/28 09:49:17;;;;;;;10.20;6.05;;;;;;;;;;5031572;28;20501;-58
2022/04/28 09:51:43;;;;;;;6.80;4.68;;;;;;;;;;5048323;28;20558;-59
2022/04/28 09:54:11;;;;;;;7.47;4.88;;;;;;;;;;5031039;28;20420;-59
2022/04/28 09:56:38;;;;;;;12.20;4.45;;;;;;;;;;5047622;28;20032;-59
2022/04/28 09:59:05;;;;;;;8.10;4.57;;;;;;;;;;5031038;28;20079;-59
2022/04/28 10:01:33;;;;;;;6.90;3.90;;;;;;;;;;5027928;28;20025;-58
2022/04/28 10:03:59;;;;;;;6.82;3.97;;;;;;;;;;5046642;28;20037;-59
2022/04/28 10:06:26;;;;;;;11.25;5.43;;;;;;;;;;5044608;28;20029;-58
2022/04/28 10:08:52;;;;;;;4.47;2.55;;;;;;;;;;5048581;28;20064;-59
2022/04/28 10:11:24;;;;;;;7.70;3.95;;;;;;;;;;5050945;28;20047;-58
2022/04/28 10:13:51;;;;;;;8.40;4.25;;;;;;;;;;5053247;28;20021;-59
2022/04/28 10:16:19;;;;;;;11.57;3.75;;;;;;;;;;5031211;28;20036;-59
2022/04/28 10:18:48;;;;;;;10.73;4.57;;;;;;;;;;5049406;28;20059;-58
2022/04/28 10:21:16;;;;;;;15.00;5.18;;;;;;;;;;5041430;28;20057;-58
2022/04/28 10:35:03;;;;;;;8.18;3.95;;;;;;;;;;5052525;28;20028;-58
2022/04/28 10:37:33;;;;;;;8.15;3.58;;;;;;;;;;5053083;28;20020;-59
2022/04/28 10:39:59;;;;;;;7.85;3.35;;;;;;;;;;5034951;28;20024;-58
2022/04/28 10:42:28;;;;;;;11.70;4.80;;;;;;;;;;5034663;28;20218;-58
2022/04/28 10:44:55;;;;;;;8.60;4.32;;;;;;;;;;5034431;28;20040;-58
2022/04/28 10:47:22;;;;;;;9.90;4.20;;;;;;;;;;5052507;28;20112;-58
2022/04/28 10:49:55;;;;;;;7.32;4.07;;;;;;;;;;5052670;28;20043;-58
2022/04/28 10:52:25;;;;;;;18.13;4.90;;;;;;;;;;5052774;28;20024;-58
2022/04/28 10:54:52;;;;;;;10.00;4.43;;;;;;;;;;5052360;28;20493;-58
2022/04/28 10:57:19;;;;;;;7.10;4.60;;;;;;;;;;5043027;28;20108;-58
2022/04/28 10:59:49;;;;;;;7.80;4.45;;;;;;;;;;5037271;28;20029;-58
2022/04/28 11:02:19;;;;;;;8.35;4.45;;;;;;;;;;5025707;28;22047;-58
2022/04/28 11:04:52;;;;;;;10.13;4.43;;;;;;;;;;5052404;28;20031;-58
2022/04/28 11:07:24;;;;;;;8.25;4.78;;;;;;;;;;5051856;28;20492;-58
2022/04/28 11:09:55;;;;;;;7.13;4.20;;;;;;;;;;5052285;28;20341;-58
2022/04/28 11:12:25;;;;;;;6.43;3.78;;;;;;;;;;5050255;28;20025;-58
2022/04/28 11:14:52;;;;;;;8.35;4.43;;;;;;;;;;5052413;28;20028;-58
2022/04/28 11:17:22;;;;;;;9.45;4.03;;;;;;;;;;5031053;28;20036;-59
2022/04/28 11:19:50;;;;;;;2.47;2.25;;;;;;;;;;5051360;28;20025;-58
2022/04/28 11:22:16;;;;;;;9.43;4.40;;;;;;;;;;5032617;28;20056;-58
2022/04/28 11:24:43;;;;;;;6.38;4.07;;;;;;;;;;5034041;28;20029;-58
2022/04/28 11:27:15;;;;;;;18.02;4.32;;;;;;;;;;5049278;28;20036;-59
2022/04/28 11:29:42;;;;;;;5.22;3.63;;;;;;;;;;5030817;28;20028;-58
2022/04/28 11:32:11;;;;;;;6.57;3.83;;;;;;;;;;5049472;28;20057;-59
2022/04/28 11:34:38;;;;;;;5.07;3.50;;;;;;;;;;5030360;28;20033;-58
2022/04/28 11:37:17;;;;;;;8.05;4.07;;;;;;;;;;5048653;28;20039;-58
2022/04/28 11:39:44;;;;;;;5.70;3.80;;;;;;;;;;5051367;28;20025;-58
2022/04/28 11:42:16;;;;;;;5.70;4.18;;;;;;;;;;5050068;28;20441;-59
2022/04/28 11:44:51;;;;;;;6.20;3.55;;;;;;;;;;5033194;28;20425;-59
2022/04/28 11:47:17;;;;;;;6.40;3.70;;;;;;;;;;5029735;28;20363;-59
2022/04/28 11:49:44;;;;;;;8.80;4.65;;;;;;;;;;5045744;28;20074;-58
2022/04/28 11:52:23;;;;;;;7.10;3.97;;;;;;;;;;5051228;28;20449;-59
2022/04/28 11:54:57;;;;;;;8.70;4.75;;;;;;;;;;5043971;28;20032;-59
2022/04/28 11:57:24;;;;;;;11.52;4.65;;;;;;;;;;5049740;28;20099;-59
2022/04/28 11:59:51;;;;;;;6.93;4.65;;;;;;;;;;5058334;28;20112;-58
2022/04/28 12:02:30;;;;;;;6.20;4.00;;;;;;;;;;5039258;28;20459;-59
2022/04/28 12:04:57;;;;;;;7.35;4.35;;;;;;;;;;5031235;28;20453;-60
2022/04/28 12:07:26;;;;;;;5.93;3.88;;;;;;;;;;5029071;28;20032;-59
2022/04/28 12:15:23;;;;;;;9.63;4.45;;;;;;;;;;5050890;28;20032;-59
2022/04/28 12:20:40;;;;;;;8.10;4.30;;;;;;;;;;5042904;28;20428;-59
2022/04/28 12:23:06;;;;;;;6.80;4.07;;;;;;;;;;5049499;28;20041;-59
2022/04/28 12:25:37;;;;;;;6.47;4.03;;;;;;;;;;5038062;28;20054;-59
2022/04/28 12:28:05;;;;;;;7.18;4.70;;;;;;;;;;5023142;28;20041;-59
2022/04/28 12:30:35;;;;;;;11.20;4.10;;;;;;;;;;5029022;28;20125;-59
2022/04/28 12:33:03;;;;;;;10.80;4.05;;;;;;;;;;5039084;28;20381;-60
2022/04/28 12:35:35;;;;;;;5.63;4.32;;;;;;;;;;5044501;28;20071;-59
2022/04/28 12:38:08;;;;;;;9.82;5.32;;;;;;;;;;5047068;28;20537;-59
2022/04/28 12:40:38;;;;;;;7.60;5.20;;;;;;;;;;5044370;28;20025;-59
2022/04/28 12:43:04;;;;;;;10.73;4.50;;;;;;;;;;5030457;28;20432;-59
2022/04/28 12:45:59;;;;;;;7.10;4.60;;;;;;;;;;5037779;28;20030;-59
2022/04/28 12:48:44;;;;;;;8.60;3.83;;;;;;;;;;4968271;28;20042;-59
2022/04/28 12:51:11;;;;;;;5.90;4.10;;;;;;;;;;4960429;28;20027;-59
2022/04/28 12:53:37;;;;;;;5.93;3.42;;;;;;;;;;4960334;28;20041;-59
2022/04/28 12:56:07;;;;;;;8.85;3.88;;;;;;;;;;4952375;28;20035;-59
2022/04/28 12:58:40;;;;;;;5.35;4.20;;;;;;;;;;4959108;28;20039;-59
2022/04/28 13:01:11;;;;;;;7.80;4.80;;;;;;;;;;4958110;28;20039;-60
2022/04/28 13:03:38;;;;;;;7.78;4.75;;;;;;;;;;4960878;28;20050;-59
2022/04/28 13:06:04;;;;;;;7.63;3.92;;;;;;;;;;4952721;28;20082;-60
2022/04/28 13:08:31;;;;;;;8.77;4.03;;;;;;;;;;4968535;28;20031;-59
2022/04/28 13:10:57;;;;;;;7.15;3.92;;;;;;;;;;4960984;28;20078;-58
2022/04/28 13:13:23;;;;;;;10.63;3.97;;;;;;;;;;4955922;28;20552;-59
2022/04/28 13:15:49;;;;;;;6.93;4.03;;;;;;;;;;4957518;28;20031;-58
2022/04/28 13:18:15;;;;;;;6.68;4.15;;;;;;;;;;4964909;28;20608;-59
2022/04/28 13:20:41;;;;;;;5.95;3.67;;;;;;;;;;4962511;28;20034;-58
2022/04/28 13:23:07;;;;;;;0.93;0.93;;;;;;;;;;4960611;28;20041;-59
2022/04/28 13:25:33;;;;;;;8.43;4.80;;;;;;;;;;5024954;28;20040;-59
2022/04/28 13:27:59;;;;;;;5.78;3.92;;;;;;;;;;5042227;28;20041;-59
2022/04/28 13:30:25;;;;;;;7.80;4.50;;;;;;;;;;5040808;28;20606;-59
2022/04/28 13:32:51;;;;;;;6.20;4.43;;;;;;;;;;5049563;28;20298;-59
2022/04/28 13:35:17;;;;;;;10.55;3.95;;;;;;;;;;5046171;28;20028;-59
2022/04/28 13:37:43;;;;;;;8.05;4.40;;;;;;;;;;5043834;28;20029;-59
2022/04/28 13:40:09;;;;;;;8.15;5.07;;;;;;;;;;5039360;28;20489;-59
2022/04/28 13:42:35;;;;;;;11.30;4.60;;;;;;;;;;5038140;28;20033;-59
2022/04/28 13:45:01;;;;;;;7.55;4.75;;;;;;;;;;5045421;28;20021;-61
2022/04/28 13:47:28;;;;;;;7.53;4.93;;;;;;;;;;5037722;28;20029;-59
2022/04/28 13:49:55;;;;;;;11.27;4.72;;;;;;;;;;5045000;28;20047;-58
2022/04/28 13:52:22;;;;;;;5.47;3.92;;;;;;;;;;5038820;28;20494;-59
2022/04/28 13:54:48;;;;;;;7.88;4.57;;;;;;;;;;5038564;28;20540;-59
2022/04/28 13:57:14;;;;;;;10.25;4.57;;;;;;;;;;5045672;28;20075;-60
2022/04/28 13:59:40;;;;;;;8.77;4.72;;;;;;;;;;5036441;28;20650;-59
2022/04/28 14:02:07;;;;;;;8.60;4.32;;;;;;;;;;5036434;28;20068;-59
2022/04/28 14:04:33;;;;;;;8.00;4.30;;;;;;;;;;5025763;28;20021;-59
2022/04/28 14:06:59;;;;;;;6.15;4.28;;;;;;;;;;5040680;28;20132;-58
2022/04/28 14:09:25;;;;;;;11.27;5.10;;;;;;;;;;5040199;28;20549;-58
2022/04/28 14:11:51;;;;;;;6.13;4.07;;;;;;;;;;5048622;28;20478;-59
2022/04/28 14:14:17;;;;;;;7.78;4.53;;;;;;;;;;5027470;28;20017;-59
2022/04/28 14:16:44;;;;;;;8.43;4.53;;;;;;;;;;5035889;28;20034;-59
2022/04/28 14:19:10;;;;;;;7.00;3.65;;;;;;;;;;5046162;28;20028;-59
2022/04/28 14:21:37;;;;;;;5.90;3.72;;;;;;;;;;5040242;28;20028;-59
2022/04/28 14:24:03;;;;;;;7.07;4.55;;;;;;;;;;5040398;28;20120;-59
2022/04/28 14:26:29;;;;;;;5.63;3.72;;;;;;;;;;5040357;28;20047;-59
2022/04/28 14:28:55;;;;;;;5.88;3.85;;;;;;;;;;5029850;28;20537;-58
2022/04/28 14:31:21;;;;;;;9.50;4.00;;;;;;;;;;5048122;28;20108;-59
2022/04/28 14:33:47;;;;;;;7.43;4.97;;;;;;;;;;5047959;28;20424;-59
2022/04/28 14:36:13;;;;;;;8.45;4.65;;;;;;;;;;5037903;28;20033;-59
2022/04/28 14:38:39;;;;;;;11.88;4.50;;;;;;;;;;5041715;28;20146;-58
2022/04/28 14:41:05;;;;;;;6.68;4.22;;;;;;;;;;5040630;28;20096;-60
2022/04/28 14:43:32;;;;;;;7.30;3.47;;;;;;;;;;5030778;28;20160;-59
2022/04/28 14:45:58;;;;;;;6.07;4.38;;;;;;;;;;5022309;28;20548;-59
2022/04/28 14:48:24;;;;;;;8.82;4.20;;;;;;;;;;5040219;28;20377;-58
2022/04/28 14:53:43;;;;;;;6.68;4.32;;;;;;;;;;5040652;28;20112;-59
2022/04/28 14:56:09;;;;;;;9.85;4.43;;;;;;;;;;5040260;28;20025;-59
2022/04/28 14:58:38;;;;;;;6.28;4.32;;;;;;;;;;5033168;28;20089;-59
2022/04/28 15:01:04;;;;;;;13.68;4.80;;;;;;;;;;5043725;28;20025;-58
2022/04/28 15:03:35;;;;;;;7.15;4.50;;;;;;;;;;5040709;28;20136;-59
2022/04/28 15:06:01;;;;;;;7.18;4.15;;;;;;;;;;5042274;28;20040;-59
2022/04/28 15:08:27;;;;;;;7.43;4.40;;;;;;;;;;5030828;28;20625;-59
2022/04/28 15:10:54;;;;;;;8.50;4.28;;;;;;;;;;5040764;28;20009;-59
2022/04/28 15:13:20;;;;;;;6.15;3.95;;;;;;;;;;5048269;28;20067;-59
2022/04/28 15:15:48;;;;;;;5.85;3.92;;;;;;;;;;5033425;28;20134;-59
2022/04/28 15:18:14;;;;;;;8.52;4.32;;;;;;;;;;5044835;28;20374;-59
2022/04/28 15:20:40;;;;;;;6.88;3.72;;;;;;;;;;5032287;28;20036;-59
2022/04/28 15:23:06;;;;;;;8.68;4.28;;;;;;;;;;5048370;28;20032;-59
2022/04/28 15:25:34;;;;;;;7.10;4.00;;;;;;;;;;5051312;28;20024;-59
2022/04/28 15:28:00;;;;;;;5.88;3.78;;;;;;;;;;5051013;28;20028;-59
2022/04/28 15:30:26;;;;;;;7.82;4.45;;;;;;;;;;5050687;28;20371;-59